Aérodrome :
LOGIN :

S'inscrire | Disclaimer

   EN    FR    IT 

 










Légende :    VFR   VFR Marginal   IFR   IFR Intensif   IFR Très Intensif
Visi : 
Plafond : 
>= 8 km
>= 3000ft
5 à 8 km
1000 à 3000 ft
1500m à 5 km
500 à 1000 ft
800 à 1500m
200 à 500 ft
< 800m
< 200 ft
Symboles :   Orages  Brouillard  Fortes neiges  Fortes précipitations  Vent > 20 kt
SIGMETs :   Divers  Orages  Givrage  Turbulence  Onde Orograph.  Cendres Volcan.






- Altitude de l'aérodrome : 1910 ft
- Code IATA : RDZ


LFCR - Rodez

DERNIER METAR :
  • 230130Z AUTO 08010KT CAVOK 15/11 Q1010 NOSIG

METARs EXPIRÉS :
  • 230100Z AUTO 09013KT CAVOK 15/11 Q1010 NOSIG
  • 230030Z AUTO 08011KT CAVOK 15/11 Q1010 NOSIG
  • 230000Z AUTO 08010KT CAVOK 15/12 Q1011 NOSIG
  • 222330Z AUTO 08007KT CAVOK 14/12 Q1012 NOSIG
  • 222300Z AUTO 09009KT CAVOK 14/12 Q1012 BECMG 10015G25KT

TAF TAF LFCR
Valide du 23 à 00h jusqu'au 24 à 00h UTC


222300Z 2300/2324 10012KT CAVOK
BECMG 2304/2306 BKN020
TEMPO 2306/2314 3000 RA BKN009
PROB30
TEMPO 2306/2311 10020G30KT TSRA BKN002 SCT026CB
TEMPO 2314/2318 12018G30KT



MET'MAP, la Météo Aéronautique d'un coup d'oeil ! - Copyright ORBIFLY Décembre 2007 - Disclaimer

ORBIFLY MET'MAP TEAM :

Programmation & Développement : Alexandra Zaïnal
Conception & Développement : Baudouin d'Aumeries
Co-Programmation & Développement : Marc-Olivier Méhu
Soutien technique & logistique : Manuel Goepfert

Contact : metmap@orbifly.com




SOURCES & CREDITS :

   NOAA